Time;durP1;ratioP1;P1;durP2;ratioP2;P2;SDS_P1;SDS_P2;PMS_P1;PMS_P2;Temp;Humidity;BMP_temperature;BMP_pressure;BME280_temperature;BME280_humidity;BME280_pressure;Samples;Min_cycle;Max_cycle;Signal;HPM_P1;HPM_P2
2023/11/18 00:00:39;;;;;;;11.40;9.50;;;;;;;3.35;100.00;98991.96;109548;1252;65956;-69
2023/11/18 00:03:25;;;;;;;13.10;10.70;;;;;;;3.35;100.00;98993.55;109511;1251;59759;-69
2023/11/18 00:05:52;;;;;;;11.10;9.90;;;;;;;3.36;100.00;98995.63;109492;1253;64141;-69
2023/11/18 00:08:19;;;;;;;10.70;9.60;;;;;;;3.37;100.00;98996.30;109519;1252;59128;-70
2023/11/18 00:10:47;;;;;;;11.10;10.00;;;;;;;3.37;100.00;98994.00;109585;1252;59842;-70
2023/11/18 00:13:14;;;;;;;11.30;10.20;;;;;;;3.39;100.00;98994.45;109492;1253;65827;-70
2023/11/18 00:15:40;;;;;;;10.30;9.20;;;;;;;3.40;100.00;98988.97;109508;1253;59980;-70
2023/11/18 00:18:07;;;;;;;10.60;9.20;;;;;;;3.40;100.00;98986.51;109494;1252;64185;-70
2023/11/18 00:20:35;;;;;;;11.00;9.90;;;;;;;3.41;100.00;98995.27;109552;1251;58953;-70
2023/11/18 00:23:04;;;;;;;11.80;10.60;;;;;;;3.40;100.00;99000.58;109545;1252;59650;-69
2023/11/18 00:25:31;;;;;;;11.60;10.50;;;;;;;3.39;100.00;99001.66;109549;1252;66137;-70
2023/11/18 00:27:58;;;;;;;12.20;10.90;;;;;;;3.38;100.00;99001.19;109595;1253;59917;-70
2023/11/18 00:30:24;;;;;;;12.10;10.90;;;;;;;3.38;100.00;98998.71;109500;1252;62666;-70
2023/11/18 00:32:52;;;;;;;14.20;12.70;;;;;;;3.39;100.00;99003.93;109511;1252;59025;-70
2023/11/18 00:35:18;;;;;;;13.20;11.80;;;;;;;3.39;100.00;99004.64;109535;1251;58943;-70
2023/11/18 00:37:45;;;;;;;12.20;11.00;;;;;;;3.38;100.00;99007.66;109506;1252;64605;-70
2023/11/18 00:40:11;;;;;;;12.30;11.00;;;;;;;3.37;100.00;99008.77;107983;1252;1002509;-70
2023/11/18 00:42:38;;;;;;;11.80;9.90;;;;;;;3.37;100.00;99008.41;109490;1252;59085;-69
2023/11/18 00:45:05;;;;;;;13.10;10.70;;;;;;;3.38;100.00;99009.96;109569;1251;58950;-69
2023/11/18 00:47:32;;;;;;;11.50;10.40;;;;;;;3.39;100.00;99009.74;109476;1252;60819;-69
2023/11/18 00:50:01;;;;;;;9.70;8.70;;;;;;;3.38;100.00;99014.88;109523;1251;58950;-71
2023/11/18 00:52:28;;;;;;;13.20;10.90;;;;;;;3.36;100.00;99015.48;109530;1252;59908;-70
2023/11/18 00:54:55;;;;;;;10.90;9.30;;;;;;;3.34;100.00;99017.83;109509;1252;64283;-70
2023/11/18 00:57:22;;;;;;;15.70;10.80;;;;;;;3.32;100.00;99017.02;109520;1252;58943;-70
2023/11/18 00:59:48;;;;;;;10.80;9.70;;;;;;;3.33;100.00;99018.77;109511;1252;58972;-70
2023/11/18 01:02:17;;;;;;;10.90;9.50;;;;;;;3.34;100.00;99013.98;109525;1251;64851;-71
2023/11/18 01:04:47;;;;;;;10.50;8.80;;;;;;;3.35;100.00;99015.16;109506;1252;59264;-70
2023/11/18 01:07:14;;;;;;;11.40;10.00;;;;;;;3.35;100.00;99013.77;109530;1252;64515;-70
2023/11/18 01:09:40;;;;;;;10.70;9.10;;;;;;;3.34;100.00;99009.93;109487;1252;58983;-71
2023/11/18 01:12:09;;;;;;;12.70;10.00;;;;;;;3.32;100.00;99007.73;109304;1253;59054;-70
2023/11/18 01:14:37;;;;;;;13.70;9.80;;;;;;;3.34;100.00;99009.95;109509;1253;75470;-69
2023/11/18 01:17:05;;;;;;;12.10;10.20;;;;;;;3.34;100.00;99015.20;109543;1251;60316;-70
2023/11/18 01:19:33;;;;;;;13.40;10.10;;;;;;;3.34;100.00;99013.61;109497;1252;63806;-70
2023/11/18 01:22:00;;;;;;;12.90;11.00;;;;;;;3.35;100.00;99011.33;109516;1255;58995;-70
2023/11/18 01:24:26;;;;;;;13.20;11.20;;;;;;;3.35;100.00;99009.19;109280;1252;59020;-71
2023/11/18 01:26:53;;;;;;;13.90;11.50;;;;;;;3.36;100.00;99007.95;109514;1253;59104;-69
2023/11/18 01:29:22;;;;;;;13.80;11.30;;;;;;;3.35;100.00;99008.67;109564;1251;59036;-70
2023/11/18 01:31:48;;;;;;;12.10;10.80;;;;;;;3.35;100.00;99006.55;109512;1252;62991;-70
2023/11/18 01:34:15;;;;;;;13.20;10.60;;;;;;;3.36;100.00;99003.36;109513;1254;58973;-70
2023/11/18 01:36:43;;;;;;;14.20;11.40;;;;;;;3.36;100.00;98999.30;109494;1252;58955;-70
2023/11/18 01:39:10;;;;;;;12.50;11.20;;;;;;;3.36;100.00;98997.39;109288;1254;66262;-70
2023/11/18 01:41:36;;;;;;;13.70;12.20;;;;;;;3.37;100.00;98998.76;109533;1251;60377;-71
2023/11/18 01:44:04;;;;;;;12.30;10.10;;;;;;;3.37;100.00;98996.64;109554;1252;62836;-70
2023/11/18 01:46:31;;;;;;;14.00;11.60;;;;;;;3.36;100.00;98995.81;109508;1253;59037;-69
2023/11/18 01:48:58;;;;;;;11.90;10.80;;;;;;;3.35;100.00;98989.02;109511;1252;59015;-69
2023/11/18 01:51:25;;;;;;;13.30;11.10;;;;;;;3.35;100.00;98985.83;109530;1252;64503;-69
2023/11/18 01:53:52;;;;;;;14.30;11.30;;;;;;;3.36;100.00;98987.90;109444;1251;59167;-70
2023/11/18 01:56:21;;;;;;;12.90;10.40;;;;;;;3.37;100.00;98988.39;109527;1253;62911;-70
2023/11/18 01:58:48;;;;;;;14.10;11.30;;;;;;;3.37;100.00;98993.48;109367;1252;58934;-70
2023/11/18 02:01:17;;;;;;;12.20;10.90;;;;;;;3.37;100.00;98991.04;109571;1252;61106;-71
2023/11/18 02:03:44;;;;;;;12.60;11.30;;;;;;;3.37;100.00;98992.96;109509;1252;66591;-71
2023/11/18 02:06:11;;;;;;;12.80;11.00;;;;;;;3.38;100.00;99000.48;109508;1252;59030;-70
2023/11/18 02:08:38;;;;;;;12.40;11.10;;;;;;;3.38;100.00;98996.79;109506;1253;64055;-70
2023/11/18 02:11:21;;;;;;;9.50;8.50;;;;;;;3.39;100.00;98995.67;109515;1252;59039;-70
2023/11/18 02:13:50;;;;;;;8.70;7.80;;;;;;;3.38;100.00;98997.11;108797;1251;1002263;-70
2023/11/18 02:16:19;;;;;;;10.20;9.10;;;;;;;3.37;100.00;99002.27;109525;1252;65771;-70
2023/11/18 02:18:49;;;;;;;11.70;9.40;;;;;;;3.37;100.00;99004.71;109516;1252;60119;-70
2023/11/18 02:21:16;;;;;;;11.60;9.40;;;;;;;3.37;100.00;99006.83;109516;1252;62839;-70
2023/11/18 02:23:42;;;;;;;10.30;9.30;;;;;;;3.37;100.00;99007.71;109133;1251;59009;-70
2023/11/18 02:26:09;;;;;;;10.80;9.30;;;;;;;3.38;100.00;99009.81;109529;1252;59895;-70
2023/11/18 02:41:29;;;;;;;10.70;9.60;;;;;;;3.58;100.00;99009.53;103457;1282;604728;-74
2023/11/18 02:43:58;;;;;;;9.50;8.60;;;;;;;3.65;100.00;99013.85;104884;1270;140508;-75
2023/11/18 02:46:28;;;;;;;10.50;9.40;;;;;;;3.58;100.00;99012.19;104987;1269;61408;-76
2023/11/18 02:48:55;;;;;;;9.70;8.80;;;;;;;3.54;100.00;99014.30;105008;1269;64100;-75
2023/11/18 02:51:22;;;;;;;9.90;8.90;;;;;;;3.51;100.00;99014.73;104927;1266;60598;-76
2023/11/18 02:53:48;;;;;;;8.70;7.80;;;;;;;3.46;100.00;99013.86;104894;1267;64200;-76
2023/11/18 02:56:15;;;;;;;8.50;7.70;;;;;;;3.41;100.00;99014.05;104929;1266;59250;-75
2023/11/18 02:58:41;;;;;;;9.10;8.00;;;;;;;3.37;100.00;99014.39;104696;1266;59362;-76
2023/11/18 03:01:08;;;;;;;10.40;9.40;;;;;;;3.34;100.00;99018.87;104947;1267;59365;-75
2023/11/18 03:03:34;;;;;;;9.90;9.00;;;;;;;3.32;100.00;99023.70;104746;1266;59545;-78
2023/11/18 03:06:01;;;;;;;9.60;8.50;;;;;;;3.29;100.00;99029.42;104940;1269;63863;-74
2023/11/18 03:08:29;;;;;;;9.80;8.90;;;;;;;3.27;100.00;99028.45;104753;1265;59655;-74
2023/11/18 03:10:57;;;;;;;10.20;9.20;;;;;;;3.24;100.00;99029.61;104914;1266;59637;-74
2023/11/18 03:13:24;;;;;;;10.80;9.70;;;;;;;3.22;100.00;99033.73;105000;1265;63238;-76
2023/11/18 03:15:51;;;;;;;11.10;10.10;;;;;;;3.19;100.00;99038.58;104985;1266;61027;-75
2023/11/18 03:18:18;;;;;;;10.50;9.60;;;;;;;3.16;100.00;99040.59;105040;1267;65695;-75
2023/11/18 03:20:45;;;;;;;10.60;9.50;;;;;;;3.14;100.00;99039.98;104676;1272;59747;-75
2023/11/18 03:23:11;;;;;;;9.70;8.70;;;;;;;3.12;100.00;99039.36;104946;1266;59647;-74
2023/11/18 03:25:38;;;;;;;9.70;8.80;;;;;;;3.10;100.00;99040.47;104950;1269;64999;-76
2023/11/18 03:28:06;;;;;;;8.70;7.90;;;;;;;3.09;100.00;99042.09;104615;1266;60992;-75
2023/11/18 03:30:33;;;;;;;8.30;7.50;;;;;;;3.09;100.00;99047.89;104971;1269;63662;-75
2023/11/18 03:32:59;;;;;;;8.40;7.60;;;;;;;3.09;100.00;99053.15;104924;1266;59616;-75
2023/11/18 03:35:26;;;;;;;8.70;8.00;;;;;;;3.10;100.00;99054.00;104954;1266;59649;-77
2023/11/18 03:37:52;;;;;;;7.90;7.00;;;;;;;3.11;100.00;99051.34;105315;1262;59835;-76
2023/11/18 03:40:19;;;;;;;7.40;6.80;;;;;;;3.10;100.00;99051.00;105579;1259;59758;-76
2023/11/18 03:42:46;;;;;;;6.70;6.10;;;;;;;3.09;100.00;99049.64;105329;1257;64710;-74
2023/11/18 03:45:17;;;;;;;7.50;6.90;;;;;;;3.10;100.00;99051.38;105502;1255;59819;-75
2023/11/18 03:47:45;;;;;;;6.90;6.30;;;;;;;3.09;100.00;99053.66;105484;1259;59536;-75
2023/11/18 03:50:13;;;;;;;7.10;6.50;;;;;;;3.09;100.00;99053.50;105369;1255;64575;-75
2023/11/18 03:52:40;;;;;;;7.10;6.50;;;;;;;3.08;100.00;99054.23;105322;1261;62229;-75
2023/11/18 03:55:08;;;;;;;8.20;7.40;;;;;;;3.07;100.00;99055.66;105496;1259;62609;-75
2023/11/18 03:57:34;;;;;;;8.90;8.00;;;;;;;3.08;100.00;99055.98;105555;1257;60006;-75
2023/11/18 04:00:06;;;;;;;10.00;8.20;;;;;;;3.07;100.00;99059.17;105493;1257;59638;-75
2023/11/18 04:02:35;;;;;;;10.10;9.10;;;;;;;3.07;100.00;99063.23;105342;1254;63723;-75
2023/11/18 04:05:03;;;;;;;11.20;8.20;;;;;;;3.07;100.00;99065.13;105502;1259;60804;-76
2023/11/18 04:07:30;;;;;;;11.40;10.10;;;;;;;3.07;100.00;99068.99;105508;1257;63439;-75
2023/11/18 04:09:56;;;;;;;11.90;9.10;;;;;;;3.07;100.00;99068.11;105513;1257;59737;-77
2023/11/18 04:12:23;;;;;;;12.50;11.20;;;;;;;3.07;100.00;99064.10;105477;1259;59682;-77
2023/11/18 04:14:50;;;;;;;11.30;10.00;;;;;;;3.06;100.00;99065.35;105462;1259;65103;-74
2023/11/18 04:17:16;;;;;;;8.90;8.10;;;;;;;3.07;100.00;99060.94;105501;1258;59633;-75
2023/11/18 04:19:43;;;;;;;8.40;7.50;;;;;;;3.07;100.00;99060.91;105541;1256;59758;-76
2023/11/18 04:22:09;;;;;;;11.70;8.80;;;;;;;3.08;100.00;99063.53;105502;1257;59664;-75
2023/11/18 04:24:36;;;;;;;9.90;8.80;;;;;;;3.08;100.00;99070.91;105512;1256;59699;-75
2023/11/18 04:27:02;;;;;;;9.90;8.90;;;;;;;3.07;100.00;99066.19;105490;1256;59741;-75
2023/11/18 04:29:29;;;;;;;10.30;9.20;;;;;;;3.08;100.00;99070.73;105526;1256;59754;-75
2023/11/18 04:31:56;;;;;;;11.70;10.40;;;;;;;3.08;100.00;99070.20;105486;1256;64803;-75
2023/11/18 04:34:23;;;;;;;11.60;10.40;;;;;;;3.08;100.00;99069.48;105459;1258;59564;-75
2023/11/18 04:36:50;;;;;;;12.60;10.60;;;;;;;3.09;100.00;99070.54;105529;1257;59628;-75
2023/11/18 04:39:17;;;;;;;10.70;9.60;;;;;;;3.09;100.00;99070.55;105514;1259;65015;-74
2023/11/18 04:41:44;;;;;;;11.40;10.30;;;;;;;3.08;100.00;99068.27;105480;1258;61097;-76
2023/11/18 04:44:10;;;;;;;10.10;9.00;;;;;;;3.08;100.00;99068.44;105465;1257;64924;-75
2023/11/18 04:46:37;;;;;;;9.80;8.80;;;;;;;3.09;100.00;99066.14;105505;1259;59568;-76
2023/11/18 04:49:05;;;;;;;9.40;8.50;;;;;;;3.08;100.00;99065.63;105485;1259;60010;-74
2023/11/18 04:51:32;;;;;;;10.80;9.70;;;;;;;3.08;100.00;99065.29;105542;1259;66158;-75
2023/11/18 05:03:01;;;;;;;7.70;7.00;;;;;;;3.11;100.00;99077.67;102542;1295;599943;-74
2023/11/18 05:05:28;;;;;;;8.70;7.80;;;;;;;3.09;100.00;99084.23;105015;1277;59239;-74
2023/11/18 05:07:55;;;;;;;8.10;7.30;;;;;;;3.09;100.00;99081.42;105249;1260;59435;-74
2023/11/18 05:10:21;;;;;;;8.60;7.80;;;;;;;3.10;100.00;99081.91;105223;1264;59705;-75
2023/11/18 05:12:55;;;;;;;9.30;8.10;;;;;;;3.09;100.00;99082.80;105248;1264;59403;-74
2023/11/18 05:15:25;;;;;;;10.20;9.20;;;;;;;3.08;100.00;99083.02;105263;1260;63465;-75
2023/11/18 05:17:52;;;;;;;9.70;8.70;;;;;;;3.09;100.00;99085.62;100366;1257;6847361;-75
2023/11/18 05:20:20;;;;;;;9.70;8.80;;;;;;;3.09;100.00;99084.58;105377;1258;59336;-74
2023/11/18 05:22:48;;;;;;;8.70;7.90;;;;;;;3.11;100.00;99085.55;105356;1257;59454;-74
2023/11/18 05:25:15;;;;;;;7.70;7.10;;;;;;;3.12;100.00;99082.73;105372;1258;60826;-75
2023/11/18 05:27:41;;;;;;;9.10;8.30;;;;;;;3.11;100.00;99083.97;105335;1257;64347;-74
2023/11/18 05:30:09;;;;;;;8.70;8.00;;;;;;;3.11;100.00;99076.95;105337;1258;59662;-75
2023/11/18 05:32:36;;;;;;;8.50;7.80;;;;;;;3.12;100.00;99078.31;105366;1258;59628;-75
2023/11/18 05:35:04;;;;;;;8.90;8.10;;;;;;;3.12;100.00;99076.21;105329;1258;66022;-74
2023/11/18 05:37:37;;;;;;;7.80;7.00;;;;;;;3.13;100.00;99079.35;105349;1257;61214;-75
2023/11/18 05:40:09;;;;;;;9.00;8.20;;;;;;;3.13;100.00;99081.43;105354;1263;64596;-76
2023/11/18 05:42:37;;;;;;;9.80;8.90;;;;;;;3.12;100.00;99087.61;105524;1262;59631;-74
2023/11/18 05:45:04;;;;;;;10.30;9.30;;;;;;;3.13;100.00;99090.21;105483;1257;59998;-74
2023/11/18 05:47:31;;;;;;;8.00;7.30;;;;;;;3.14;100.00;99093.02;105355;1257;62951;-75
2023/11/18 05:49:57;;;;;;;10.20;9.20;;;;;;;3.14;100.00;99098.80;105330;1257;59762;-77
2023/11/18 05:52:24;;;;;;;11.20;10.10;;;;;;;3.15;100.00;99101.93;105563;1257;63646;-75
2023/11/18 05:54:50;;;;;;;10.20;9.20;;;;;;;3.15;100.00;99103.34;105596;1258;59616;-75
2023/11/18 05:57:18;;;;;;;9.90;9.00;;;;;;;3.14;100.00;99105.98;105601;1258;59659;-76
2023/11/18 05:59:48;;;;;;;9.40;8.60;;;;;;;3.14;100.00;99103.19;105585;1258;63878;-74
2023/11/18 06:02:18;;;;;;;9.00;8.10;;;;;;;3.16;100.00;99103.12;105564;1260;68868;-75
2023/11/18 06:04:45;;;;;;;8.30;7.60;;;;;;;3.18;100.00;99102.70;105647;1257;63405;-75
2023/11/18 06:07:13;;;;;;;7.30;6.60;;;;;;;3.19;100.00;99100.02;105605;1258;59717;-75
2023/11/18 06:09:42;;;;;;;6.30;5.80;;;;;;;3.19;100.00;99105.99;105571;1259;59624;-75
2023/11/18 06:12:11;;;;;;;5.90;5.40;;;;;;;3.20;100.00;99109.29;105645;1257;64433;-75
2023/11/18 06:14:37;;;;;;;6.80;5.30;;;;;;;3.20;100.00;99111.91;105445;1258;60821;-75
2023/11/18 06:17:07;;;;;;;6.30;5.70;;;;;;;3.20;100.00;99112.44;105432;1257;64622;-73
2023/11/18 06:19:34;;;;;;;7.30;6.30;;;;;;;3.22;100.00;99114.33;105309;1261;59711;-74
2023/11/18 06:22:01;;;;;;;7.60;6.90;;;;;;;3.22;100.00;99115.72;105332;1263;59785;-75
2023/11/18 06:24:28;;;;;;;8.60;7.80;;;;;;;3.23;100.00;99117.61;105432;1258;66682;-75
2023/11/18 06:26:54;;;;;;;8.30;7.50;;;;;;;3.24;100.00;99121.10;105482;1260;59646;-76
2023/11/18 06:29:21;;;;;;;9.90;8.90;;;;;;;3.24;100.00;99123.88;105426;1257;63826;-75
2023/11/18 06:31:48;;;;;;;13.20;10.40;;;;;;;3.24;100.00;99127.74;105461;1257;59740;-75
2023/11/18 06:34:15;;;;;;;12.80;11.60;;;;;;;3.25;100.00;99129.83;105456;1260;59630;-75
2023/11/18 06:36:41;;;;;;;11.30;10.20;;;;;;;3.26;100.00;99127.33;105504;1252;63223;-75
2023/11/18 06:39:08;;;;;;;12.40;11.30;;;;;;;3.27;100.00;99132.23;105804;1253;61049;-75
2023/11/18 06:41:38;;;;;;;11.00;9.90;;;;;;;3.27;100.00;99132.22;105423;1257;64088;-75
2023/11/18 06:44:12;;;;;;;10.60;9.60;;;;;;;3.27;100.00;99138.53;105865;1257;59755;-75
2023/11/18 06:46:40;;;;;;;11.00;9.80;;;;;;;3.26;100.00;99147.54;105835;1257;59632;-74
2023/11/18 06:49:07;;;;;;;10.20;8.80;;;;;;;3.24;100.00;99151.81;105771;1256;65263;-74
2023/11/18 06:51:35;;;;;;;9.60;8.60;;;;;;;3.24;100.00;99153.93;105919;1256;59738;-75
2023/11/18 06:54:08;;;;;;;11.20;7.70;;;;;;;3.24;100.00;99160.24;105783;1257;63443;-74
2023/11/18 06:56:37;;;;;;;7.00;6.30;;;;;;;3.23;100.00;99161.34;105758;1256;59727;-75
2023/11/18 06:59:07;;;;;;;5.70;5.10;;;;;;;3.22;100.00;99167.70;105845;1254;59628;-75
2023/11/18 07:01:35;;;;;;;;;;;;;;;3.20;100.00;99171.60;105832;1252;65312;-74
2023/11/18 07:04:02;;;;;;;4.90;4.40;;;;;;;3.17;100.00;99172.23;105802;1257;59715;-73
2023/11/18 07:06:29;;;;;;;3.80;3.50;;;;;;;3.14;100.00;99172.52;105806;1252;63459;-73
2023/11/18 07:09:00;;;;;;;4.70;4.30;;;;;;;3.11;100.00;99177.02;105754;1254;59647;-72
2023/11/18 07:11:27;;;;;;;5.90;5.40;;;;;;;3.08;100.00;99181.50;105797;1253;59541;-72
2023/11/18 07:13:57;;;;;;;5.80;5.10;;;;;;;3.04;100.00;99188.29;105774;1253;63860;-71
2023/11/18 07:16:24;;;;;;;6.30;5.70;;;;;;;3.00;100.00;99194.05;105834;1251;59980;-72
2023/11/18 07:18:52;;;;;;;5.80;5.30;;;;;;;2.98;100.00;99196.94;105848;1256;64825;-71
2023/11/18 07:21:19;;;;;;;6.10;5.50;;;;;;;2.97;100.00;99198.36;105858;1253;59655;-71
2023/11/18 07:23:46;;;;;;;6.40;5.80;;;;;;;2.97;100.00;99203.44;105794;1253;59628;-71
2023/11/18 07:26:16;;;;;;;6.40;5.80;;;;;;;2.96;100.00;99207.87;105802;1254;65061;-71
2023/11/18 07:28:43;;;;;;;7.30;6.60;;;;;;;2.98;100.00;99205.37;105790;1256;60985;-72
2023/11/18 07:31:10;;;;;;;6.50;5.90;;;;;;;2.99;100.00;99207.41;105824;1257;63671;-72
2023/11/18 07:33:37;;;;;;;6.80;5.70;;;;;;;2.99;100.00;99207.77;105806;1257;59726;-73
2023/11/18 07:36:06;;;;;;;7.10;6.40;;;;;;;2.99;100.00;99209.00;105859;1253;59669;-72
2023/11/18 07:38:34;;;;;;;6.90;6.10;;;;;;;3.00;100.00;99209.51;105809;1254;63193;-73
2023/11/18 07:41:02;;;;;;;8.50;7.10;;;;;;;3.02;100.00;99214.52;105842;1254;60778;-73
2023/11/18 07:43:30;;;;;;;10.20;8.20;;;;;;;3.05;100.00;99215.49;105865;1255;65926;-72
2023/11/18 07:45:56;;;;;;;11.20;7.50;;;;;;;3.09;100.00;99218.32;105602;1254;59810;-73
2023/11/18 07:48:23;;;;;;;11.60;9.50;;;;;;;3.14;100.00;99219.20;105866;1252;59673;-72
2023/11/18 07:50:50;;;;;;;10.70;8.90;;;;;;;3.21;100.00;99220.91;105602;1259;66287;-73
2023/11/18 07:53:17;;;;;;;16.40;12.30;;;;;;;3.26;100.00;99224.43;105823;1256;60761;-72
2023/11/18 07:55:44;;;;;;;20.80;15.30;;;;;;;3.32;100.00;99228.64;105644;1257;60117;-73
2023/11/18 07:58:11;;;;;;;26.10;17.00;;;;;;;3.34;100.00;99229.44;105787;1256;59547;-73
2023/11/18 08:00:39;;;;;;;21.50;15.80;;;;;;;3.34;100.00;99224.85;105803;1252;60677;-73
2023/11/18 08:03:14;;;;;;;27.00;18.10;;;;;;;3.35;100.00;99227.13;105811;1257;66014;-73
2023/11/18 08:05:45;;;;;;;24.90;18.20;;;;;;;3.38;100.00;99225.11;105858;1257;60800;-72
2023/11/18 08:08:13;;;;;;;28.10;19.00;;;;;;;3.38;100.00;99227.73;105791;1254;64815;-73
2023/11/18 08:10:42;;;;;;;28.90;20.30;;;;;;;3.37;100.00;99228.63;105833;1256;59618;-74
2023/11/18 08:13:09;;;;;;;32.00;22.10;;;;;;;3.40;100.00;99227.83;105823;1252;59593;-73
2023/11/18 08:15:42;;;;;;;21.90;15.50;;;;;;;3.41;100.00;99229.20;105793;1254;63811;-73
2023/11/18 08:18:11;;;;;;;15.70;13.40;;;;;;;3.40;100.00;99233.45;105795;1257;59718;-73
2023/11/18 08:20:38;;;;;;;18.20;13.60;;;;;;;3.41;100.00;99239.23;105857;1254;64807;-74
2023/11/18 08:23:05;;;;;;;16.90;13.00;;;;;;;3.42;100.00;99245.67;105891;1256;59980;-75
2023/11/18 08:25:39;;;;;;;19.70;15.00;;;;;;;3.44;100.00;99243.66;105895;1252;59758;-75
2023/11/18 08:28:08;;;;;;;18.70;14.30;;;;;;;3.49;100.00;99241.92;105914;1252;63897;-73
2023/11/18 08:30:36;;;;;;;17.80;14.20;;;;;;;3.54;100.00;99238.93;106032;1256;59767;-73
2023/11/18 08:33:08;;;;;;;18.00;14.20;;;;;;;3.61;100.00;99240.09;105857;1252;64728;-75
2023/11/18 08:35:36;;;;;;;18.90;14.90;;;;;;;3.67;100.00;99244.64;105611;1254;59638;-74
2023/11/18 08:38:04;;;;;;;19.40;14.30;;;;;;;3.70;100.00;99242.77;105935;1254;59657;-74
2023/11/18 08:40:30;;;;;;;18.00;13.90;;;;;;;3.70;100.00;99241.02;105747;1254;64134;-74
2023/11/18 08:42:57;;;;;;;18.70;14.60;;;;;;;3.68;100.00;99244.60;105873;1256;60701;-77
2023/11/18 08:45:32;;;;;;;18.30;15.40;;;;;;;3.64;100.00;99247.38;105569;1257;64242;-74
2023/11/18 08:48:01;;;;;;;19.40;15.30;;;;;;;3.62;100.00;99253.96;105851;1254;59687;-73
2023/11/18 08:50:28;;;;;;;23.60;15.90;;;;;;;3.63;100.00;99257.25;105816;1253;59596;-78
2023/11/18 08:52:58;;;;;;;20.00;15.70;;;;;;;3.66;100.00;99254.16;105965;1255;65209;-76
2023/11/18 08:58:03;;;;;;;19.10;15.00;;;;;;;3.67;100.00;99260.80;105934;1254;63768;-73
2023/11/18 09:03:24;;;;;;;18.40;15.40;;;;;;;3.62;100.00;99273.83;105842;1252;59666;-73
2023/11/18 09:05:57;;;;;;;;;;;;;;;3.58;100.00;99277.46;105844;1254;64094;-74
2023/11/18 09:08:29;;;;;;;19.90;14.50;;;;;;;3.56;100.00;99284.02;105750;1254;60074;-74
2023/11/18 09:10:57;;;;;;;21.00;14.90;;;;;;;3.52;100.00;99288.55;105805;1256;63332;-72
2023/11/18 09:13:29;;;;;;;12.10;8.40;;;;;;;3.58;100.00;99286.25;105819;1253;60415;-73
2023/11/18 09:15:57;;;;;;;16.20;11.70;;;;;;;3.71;100.00;99289.66;105819;1252;60457;-72
2023/11/18 09:18:25;;;;;;;10.40;7.70;;;;;;;3.71;100.00;99292.98;105113;1252;1003530;-70
2023/11/18 09:20:55;;;;;;;6.80;5.30;;;;;;;3.54;100.00;99294.98;105867;1254;60629;-72
2023/11/18 09:23:25;;;;;;;4.90;4.30;;;;;;;3.28;100.00;99298.81;105777;1254;64723;-71
2023/11/18 09:25:53;;;;;;;7.30;5.50;;;;;;;3.07;100.00;99306.85;105862;1256;60352;-71
2023/11/18 09:28:20;;;;;;;9.10;7.70;;;;;;;2.92;100.00;99307.15;105734;1253;60451;-70
2023/11/18 09:30:53;;;;;;;14.00;10.60;;;;;;;2.80;100.00;99308.40;105929;1254;66611;-72
2023/11/18 09:33:32;;;;;;;12.20;8.70;;;;;;;2.74;100.00;99311.90;105805;1254;60415;-71
2023/11/18 09:36:07;;;;;;;11.60;9.10;;;;;;;2.71;100.00;99313.91;105805;1256;64945;-71
2023/11/18 09:38:40;;;;;;;10.70;8.10;;;;;;;2.71;100.00;99314.98;105803;1253;60551;-71
2023/11/18 09:41:12;;;;;;;10.30;8.70;;;;;;;2.72;100.00;99316.73;105797;1254;60382;-71
2023/11/18 09:43:52;;;;;;;12.30;8.50;;;;;;;2.75;100.00;99317.67;105843;1252;64979;-71
2023/11/18 09:46:25;;;;;;;13.00;9.40;;;;;;;2.79;100.00;99320.17;105811;1254;60638;-71
2023/11/18 09:49:14;;;;;;;14.30;9.40;;;;;;;2.84;100.00;99322.67;105855;1254;64834;-71
2023/11/18 09:51:46;;;;;;;9.90;7.90;;;;;;;2.86;100.00;99326.81;105840;1254;60552;-71
2023/11/18 09:54:41;;;;;;;12.70;9.80;;;;;;;2.84;100.00;99331.59;105480;1261;60538;-73
2023/11/18 09:57:22;;;;;;;12.20;9.80;;;;;;;2.84;100.00;99335.66;105313;1262;64630;-71
2023/11/18 10:00:26;;;;;;;13.00;10.40;;;;;;;2.80;100.00;99341.92;105276;1260;60732;-71
2023/11/18 10:02:56;;;;;;;14.80;11.00;;;;;;;2.74;100.00;99340.51;105238;1260;63698;-72
2023/11/18 10:05:26;;;;;;;15.10;11.20;;;;;;;2.67;100.00;99349.30;105235;1262;60466;-73
2023/11/18 10:07:53;;;;;;;12.90;11.30;;;;;;;2.60;100.00;99357.05;105257;1259;60566;-73
2023/11/18 10:10:20;;;;;;;12.80;10.90;;;;;;;2.53;100.00;99363.40;105282;1260;64916;-71
2023/11/18 10:13:00;;;;;;;8.80;6.60;;;;;;;2.39;100.00;99372.20;105227;1260;61037;-71
2023/11/18 10:15:27;;;;;;;9.30;7.90;;;;;;;2.26;100.00;99373.42;105260;1260;66184;-71
2023/11/18 10:18:06;;;;;;;9.80;8.10;;;;;;;2.16;100.00;99373.19;105178;1265;60848;-71
2023/11/18 10:20:47;;;;;;;9.30;8.30;;;;;;;2.11;100.00;99370.51;105304;1262;60400;-71
2023/11/18 10:23:27;;;;;;;9.40;8.20;;;;;;;2.09;100.00;99365.64;105337;1261;66598;-70
2023/11/18 10:25:58;;;;;;;9.70;8.50;;;;;;;2.10;100.00;99372.64;105161;1258;60442;-70
2023/11/18 10:28:32;;;;;;;16.70;12.30;;;;;;;2.10;100.00;99375.77;105255;1262;64745;-71
2023/11/18 10:31:05;;;;;;;12.30;10.40;;;;;;;2.14;100.00;99377.77;105238;1260;60633;-70
2023/11/18 10:33:35;;;;;;;12.00;9.00;;;;;;;2.19;100.00;99374.84;105163;1259;60563;-72
2023/11/18 10:36:04;;;;;;;10.00;8.80;;;;;;;2.25;100.00;99379.08;105839;1252;65040;-70
2023/11/18 10:38:36;;;;;;;11.20;8.70;;;;;;;2.31;100.00;99380.16;105844;1256;60351;-70
2023/11/18 10:41:03;;;;;;;10.80;8.50;;;;;;;2.32;100.00;99386.24;105806;1253;64584;-71
2023/11/18 10:43:30;;;;;;;11.70;9.80;;;;;;;2.33;100.00;99386.73;105778;1254;61934;-71
2023/11/18 10:46:11;;;;;;;9.00;8.10;;;;;;;2.35;100.00;99389.50;105826;1254;60370;-71
2023/11/18 10:48:47;;;;;;;10.10;8.40;;;;;;;2.36;100.00;99391.76;105845;1254;66914;-70
2023/11/18 10:51:26;;;;;;;9.70;8.70;;;;;;;2.37;100.00;99397.33;105892;1256;60930;-70
2023/11/18 10:53:56;;;;;;;9.70;8.50;;;;;;;2.39;100.00;99401.84;105074;1254;1002975;-71
2023/11/18 10:56:28;;;;;;;11.00;8.60;;;;;;;2.39;100.00;99406.21;105860;1256;60417;-71
2023/11/18 10:58:59;;;;;;;10.80;8.80;;;;;;;2.37;100.00;99408.89;105445;1254;60892;-71
2023/11/18 11:01:33;;;;;;;11.40;8.80;;;;;;;2.36;100.00;99409.61;105852;1256;65107;-73
2023/11/18 11:04:04;;;;;;;11.30;9.60;;;;;;;2.34;100.00;99417.75;105823;1257;60441;-71
2023/11/18 11:06:32;;;;;;;12.60;9.90;;;;;;;2.32;100.00;99421.84;105886;1253;65729;-70
2023/11/18 11:08:59;;;;;;;10.60;9.50;;;;;;;2.32;100.00;99420.79;105867;1254;60899;-72
2023/11/18 11:11:34;;;;;;;11.10;9.30;;;;;;;2.32;100.00;99421.31;109583;1253;58275;-70
2023/11/18 11:14:03;;;;;;;9.10;7.90;;;;;;;2.31;100.00;99424.15;109590;1251;64341;-71
2023/11/18 11:16:53;;;;;;;7.50;6.80;;;;;;;2.30;100.00;99425.76;109583;1251;59306;-71
2023/11/18 11:19:26;;;;;;;;;;;;;;;2.28;100.00;99437.02;109594;1251;62526;-71
2023/11/18 11:22:02;;;;;;;7.20;6.50;;;;;;;2.24;100.00;99439.06;109581;1251;58171;-71
2023/11/18 11:25:09;;;;;;;6.90;6.00;;;;;;;2.18;100.00;99444.27;109630;1251;58049;-71
2023/11/18 11:27:51;;;;;;;7.30;6.50;;;;;;;2.16;100.00;99443.80;108910;1262;64035;-72
2023/11/18 11:30:24;;;;;;;8.60;6.80;;;;;;;2.16;100.00;99447.51;108931;1260;60204;-72
2023/11/18 11:32:53;;;;;;;9.30;6.80;;;;;;;2.16;100.00;99447.33;108849;1260;62662;-72
2023/11/18 11:35:27;;;;;;;6.70;5.90;;;;;;;2.17;100.00;99454.81;108885;1260;58216;-71
2023/11/18 11:37:57;;;;;;;6.50;5.90;;;;;;;2.20;100.00;99462.29;108943;1260;58370;-72
2023/11/18 11:40:26;;;;;;;7.30;6.50;;;;;;;2.23;100.00;99464.51;108931;1260;64963;-72
2023/11/18 11:42:55;;;;;;;10.00;8.00;;;;;;;2.25;100.00;99466.20;108952;1260;58669;-72
2023/11/18 11:45:28;;;;;;;7.20;6.50;;;;;;;2.30;100.00;99466.95;108939;1260;64119;-72
2023/11/18 11:48:13;;;;;;;7.70;7.00;;;;;;;2.34;100.00;99472.29;108929;1260;58183;-72
2023/11/18 11:51:05;;;;;;;8.40;7.30;;;;;;;2.36;100.00;99483.44;108895;1260;58227;-71
2023/11/18 11:53:39;;;;;;;9.40;7.70;;;;;;;2.39;100.00;99485.48;108395;1269;63724;-72
2023/11/18 11:56:06;;;;;;;7.60;6.00;;;;;;;2.37;100.00;99486.05;108238;1270;59869;-72